sensor_id;sensor_type;location;lat;lon;timestamp;temperature;humidity
32895;DHT22;19251;49.484;8.260;2022-08-30T00:02:29;20.40;14.00
32895;DHT22;19251;49.484;8.260;2022-08-30T00:07:32;20.40;14.10
32895;DHT22;19251;49.484;8.260;2022-08-30T00:12:34;20.40;14.30
32895;DHT22;19251;49.484;8.260;2022-08-30T00:17:36;20.30;14.40
32895;DHT22;19251;49.484;8.260;2022-08-30T00:22:39;20.00;14.40
32895;DHT22;19251;49.484;8.260;2022-08-30T00:27:42;20.00;14.50
32895;DHT22;19251;49.484;8.260;2022-08-30T00:32:47;20.10;14.70
32895;DHT22;19251;49.484;8.260;2022-08-30T00:37:50;19.70;14.60
32895;DHT22;19251;49.484;8.260;2022-08-30T00:42:53;19.80;15.30
32895;DHT22;19251;49.484;8.260;2022-08-30T00:48:00;19.70;14.80
32895;DHT22;19251;49.484;8.260;2022-08-30T00:53:07;19.60;14.90
32895;DHT22;19251;49.484;8.260;2022-08-30T00:58:13;19.80;15.30
32895;DHT22;19251;49.484;8.260;2022-08-30T01:03:21;19.60;15.30
32895;DHT22;19251;49.484;8.260;2022-08-30T01:08:23;19.60;15.40
32895;DHT22;19251;49.484;8.260;2022-08-30T01:13:27;19.80;14.90
32895;DHT22;19251;49.484;8.260;2022-08-30T01:18:30;19.20;15.30
32895;DHT22;19251;49.484;8.260;2022-08-30T01:23:39;19.40;15.60
32895;DHT22;19251;49.484;8.260;2022-08-30T01:28:46;19.60;15.80
32895;DHT22;19251;49.484;8.260;2022-08-30T01:33:49;19.20;15.70
32895;DHT22;19251;49.484;8.260;2022-08-30T01:38:54;19.30;15.80
32895;DHT22;19251;49.484;8.260;2022-08-30T01:43:59;19.10;15.80
32895;DHT22;19251;49.484;8.260;2022-08-30T01:49:08;19.30;16.10
32895;DHT22;19251;49.484;8.260;2022-08-30T01:54:12;19.30;16.20
32895;DHT22;19251;49.484;8.260;2022-08-30T01:59:14;19.20;16.30
32895;DHT22;19251;49.484;8.260;2022-08-30T02:04:16;19.10;17.20
32895;DHT22;19251;49.484;8.260;2022-08-30T02:09:19;19.10;16.50
32895;DHT22;19251;49.484;8.260;2022-08-30T02:14:21;19.20;15.90
32895;DHT22;19251;49.484;8.260;2022-08-30T02:19:23;19.00;16.60
32895;DHT22;19251;49.484;8.260;2022-08-30T02:24:26;19.40;17.00
32895;DHT22;19251;49.484;8.260;2022-08-30T02:29:29;19.20;16.90
32895;DHT22;19251;49.484;8.260;2022-08-30T02:34:31;19.10;16.90
32895;DHT22;19251;49.484;8.260;2022-08-30T02:39:33;19.10;16.90
32895;DHT22;19251;49.484;8.260;2022-08-30T02:44:35;18.90;17.00
32895;DHT22;19251;49.484;8.260;2022-08-30T02:49:37;19.20;17.30
32895;DHT22;19251;49.484;8.260;2022-08-30T02:54:39;19.00;17.40
32895;DHT22;19251;49.484;8.260;2022-08-30T02:59:41;19.00;17.40
32895;DHT22;19251;49.484;8.260;2022-08-30T03:04:46;18.80;17.30
32895;DHT22;19251;49.484;8.260;2022-08-30T03:09:48;18.80;17.40
32895;DHT22;19251;49.484;8.260;2022-08-30T03:14:51;18.70;17.60
32895;DHT22;19251;49.484;8.260;2022-08-30T03:19:53;18.50;17.60
32895;DHT22;19251;49.484;8.260;2022-08-30T03:24:55;18.40;17.80
32895;DHT22;19251;49.484;8.260;2022-08-30T03:30:00;18.50;18.10
32895;DHT22;19251;49.484;8.260;2022-08-30T03:35:03;18.40;18.00
32895;DHT22;19251;49.484;8.260;2022-08-30T03:40:07;18.60;18.40
32895;DHT22;19251;49.484;8.260;2022-08-30T03:45:13;18.40;18.30
32895;DHT22;19251;49.484;8.260;2022-08-30T03:50:16;18.50;18.60
32895;DHT22;19251;49.484;8.260;2022-08-30T03:55:18;18.20;18.60
32895;DHT22;19251;49.484;8.260;2022-08-30T04:00:21;18.10;18.70
32895;DHT22;19251;49.484;8.260;2022-08-30T04:05:24;18.00;18.90
32895;DHT22;19251;49.484;8.260;2022-08-30T04:10:29;17.90;19.00
32895;DHT22;19251;49.484;8.260;2022-08-30T04:15:31;17.90;19.40
32895;DHT22;19251;49.484;8.260;2022-08-30T04:20:34;17.90;19.60
32895;DHT22;19251;49.484;8.260;2022-08-30T04:25:37;17.90;19.90
32895;DHT22;19251;49.484;8.260;2022-08-30T04:30:42;17.50;19.50
32895;DHT22;19251;49.484;8.260;2022-08-30T04:35:47;17.60;19.70
32895;DHT22;19251;49.484;8.260;2022-08-30T04:40:50;17.50;19.50
32895;DHT22;19251;49.484;8.260;2022-08-30T04:45:53;17.50;19.60
32895;DHT22;19251;49.484;8.260;2022-08-30T04:50:56;17.30;19.70
32895;DHT22;19251;49.484;8.260;2022-08-30T04:55:58;17.30;19.80
32895;DHT22;19251;49.484;8.260;2022-08-30T05:01:00;17.40;20.10
32895;DHT22;19251;49.484;8.260;2022-08-30T05:06:03;17.30;20.20
32895;DHT22;19251;49.484;8.260;2022-08-30T05:11:06;17.90;20.70
32895;DHT22;19251;49.484;8.260;2022-08-30T05:16:09;17.40;20.50
32895;DHT22;19251;49.484;8.260;2022-08-30T05:21:29;17.50;20.50
32895;DHT22;19251;49.484;8.260;2022-08-30T05:26:33;17.20;20.40
32895;DHT22;19251;49.484;8.260;2022-08-30T05:31:38;17.00;20.60
32895;DHT22;19251;49.484;8.260;2022-08-30T05:36:40;17.10;20.80
32895;DHT22;19251;49.484;8.260;2022-08-30T05:41:42;17.40;21.50
32895;DHT22;19251;49.484;8.260;2022-08-30T05:46:44;17.40;21.20
32895;DHT22;19251;49.484;8.260;2022-08-30T05:51:48;17.60;21.40
32895;DHT22;19251;49.484;8.260;2022-08-30T05:56:50;17.70;21.50
32895;DHT22;19251;49.484;8.260;2022-08-30T06:01:55;17.80;21.50
32895;DHT22;19251;49.484;8.260;2022-08-30T06:06:58;17.90;21.60
32895;DHT22;19251;49.484;8.260;2022-08-30T06:12:00;18.20;21.80
32895;DHT22;19251;49.484;8.260;2022-08-30T06:17:02;18.40;21.60
32895;DHT22;19251;49.484;8.260;2022-08-30T06:22:04;18.40;21.60
32895;DHT22;19251;49.484;8.260;2022-08-30T06:27:06;18.80;21.60
32895;DHT22;19251;49.484;8.260;2022-08-30T06:32:10;19.00;21.30
32895;DHT22;19251;49.484;8.260;2022-08-30T06:37:12;19.50;21.10
32895;DHT22;19251;49.484;8.260;2022-08-30T06:42:32;19.70;20.60
32895;DHT22;19251;49.484;8.260;2022-08-30T06:47:34;20.20;20.30
32895;DHT22;19251;49.484;8.260;2022-08-30T06:52:37;20.50;19.70
32895;DHT22;19251;49.484;8.260;2022-08-30T06:57:40;20.70;19.20
32895;DHT22;19251;49.484;8.260;2022-08-30T07:02:42;20.90;18.80
32895;DHT22;19251;49.484;8.260;2022-08-30T07:07:44;21.20;18.40
32895;DHT22;19251;49.484;8.260;2022-08-30T07:12:47;21.70;18.20
32895;DHT22;19251;49.484;8.260;2022-08-30T07:17:49;21.80;18.30
32895;DHT22;19251;49.484;8.260;2022-08-30T07:23:11;22.30;17.70
32895;DHT22;19251;49.484;8.260;2022-08-30T07:28:14;22.50;17.20
32895;DHT22;19251;49.484;8.260;2022-08-30T07:33:16;22.30;16.70
32895;DHT22;19251;49.484;8.260;2022-08-30T07:38:18;23.00;17.00
32895;DHT22;19251;49.484;8.260;2022-08-30T07:43:23;23.10;15.80
32895;DHT22;19251;49.484;8.260;2022-08-30T07:48:25;23.70;15.60
32895;DHT22;19251;49.484;8.260;2022-08-30T07:53:27;23.70;15.50
32895;DHT22;19251;49.484;8.260;2022-08-30T07:58:30;23.90;14.90
32895;DHT22;19251;49.484;8.260;2022-08-30T08:03:32;24.60;15.10
32895;DHT22;19251;49.484;8.260;2022-08-30T08:08:35;24.40;14.50
32895;DHT22;19251;49.484;8.260;2022-08-30T08:13:38;24.60;13.90
32895;DHT22;19251;49.484;8.260;2022-08-30T08:18:55;24.90;13.60
32895;DHT22;19251;49.484;8.260;2022-08-30T08:23:58;25.00;13.10
32895;DHT22;19251;49.484;8.260;2022-08-30T08:29:00;25.10;12.60
32895;DHT22;19251;49.484;8.260;2022-08-30T08:34:03;25.40;12.80
32895;DHT22;19251;49.484;8.260;2022-08-30T08:39:08;25.40;13.50
32895;DHT22;19251;49.484;8.260;2022-08-30T08:49:37;25.60;11.80
32895;DHT22;19251;49.484;8.260;2022-08-30T08:54:52;25.80;11.60
32895;DHT22;19251;49.484;8.260;2022-08-30T09:00:02;25.80;11.40
32895;DHT22;19251;49.484;8.260;2022-08-30T09:05:05;26.00;11.20
32895;DHT22;19251;49.484;8.260;2022-08-30T09:10:07;26.00;10.90
32895;DHT22;19251;49.484;8.260;2022-08-30T09:15:22;26.30;10.20
32895;DHT22;19251;49.484;8.260;2022-08-30T09:20:38;26.50;10.10
32895;DHT22;19251;49.484;8.260;2022-08-30T09:26:05;26.70;10.10
32895;DHT22;19251;49.484;8.260;2022-08-30T09:31:26;26.80;10.10
32895;DHT22;19251;49.484;8.260;2022-08-30T09:36:34;27.00;9.30
32895;DHT22;19251;49.484;8.260;2022-08-30T09:41:43;27.20;8.50
32895;DHT22;19251;49.484;8.260;2022-08-30T09:46:55;27.40;8.10
32895;DHT22;19251;49.484;8.260;2022-08-30T09:52:22;27.60;7.80
32895;DHT22;19251;49.484;8.260;2022-08-30T10:08:03;28.20;7.00
32895;DHT22;19251;49.484;8.260;2022-08-30T10:19:16;28.90;6.20
32895;DHT22;19251;49.484;8.260;2022-08-30T10:24:25;28.50;4.90
32895;DHT22;19251;49.484;8.260;2022-08-30T10:29:50;29.20;4.80
32895;DHT22;19251;49.484;8.260;2022-08-30T10:40:20;29.40;4.40
32895;DHT22;19251;49.484;8.260;2022-08-30T10:45:45;29.60;4.70
32895;DHT22;19251;49.484;8.260;2022-08-30T10:50:51;29.80;4.20
32895;DHT22;19251;49.484;8.260;2022-08-30T10:56:02;29.70;4.10
32895;DHT22;19251;49.484;8.260;2022-08-30T11:06:39;30.50;3.10
32895;DHT22;19251;49.484;8.260;2022-08-30T11:12:21;30.80;2.70
32895;DHT22;19251;49.484;8.260;2022-08-30T11:17:35;30.90;2.70
32895;DHT22;19251;49.484;8.260;2022-08-30T11:23:14;31.10;2.20
32895;DHT22;19251;49.484;8.260;2022-08-30T11:33:47;31.70;2.30
32895;DHT22;19251;49.484;8.260;2022-08-30T11:43:52;32.10;1.00
32895;DHT22;19251;49.484;8.260;2022-08-30T12:04:48;33.40;1.00
32895;DHT22;19251;49.484;8.260;2022-08-30T12:14:55;33.90;1.00
32895;DHT22;19251;49.484;8.260;2022-08-30T12:19:59;34.20;1.00
32895;DHT22;19251;49.484;8.260;2022-08-30T12:25:16;34.40;1.00
32895;DHT22;19251;49.484;8.260;2022-08-30T12:30:25;34.60;1.00
32895;DHT22;19251;49.484;8.260;2022-08-30T12:35:29;34.80;1.00
32895;DHT22;19251;49.484;8.260;2022-08-30T12:40:32;35.00;1.00
32895;DHT22;19251;49.484;8.260;2022-08-30T12:45:43;35.10;1.00
32895;DHT22;19251;49.484;8.260;2022-08-30T12:50:57;35.20;1.00
32895;DHT22;19251;49.484;8.260;2022-08-30T12:56:06;35.40;1.00
32895;DHT22;19251;49.484;8.260;2022-08-30T13:01:28;35.70;1.00
32895;DHT22;19251;49.484;8.260;2022-08-30T13:06:55;36.00;1.00
32895;DHT22;19251;49.484;8.260;2022-08-30T13:12:02;36.20;1.00
32895;DHT22;19251;49.484;8.260;2022-08-30T13:17:19;36.30;1.00
32895;DHT22;19251;49.484;8.260;2022-08-30T13:22:30;36.60;1.00
32895;DHT22;19251;49.484;8.260;2022-08-30T13:27:34;36.90;1.00
32895;DHT22;19251;49.484;8.260;2022-08-30T13:32:38;37.10;1.00
32895;DHT22;19251;49.484;8.260;2022-08-30T13:37:41;37.50;1.00
32895;DHT22;19251;49.484;8.260;2022-08-30T13:42:52;38.00;1.00
32895;DHT22;19251;49.484;8.260;2022-08-30T13:47:54;38.50;1.00
32895;DHT22;19251;49.484;8.260;2022-08-30T13:52:56;39.10;1.00
32895;DHT22;19251;49.484;8.260;2022-08-30T13:57:59;40.00;1.00
32895;DHT22;19251;49.484;8.260;2022-08-30T14:03:01;39.90;1.00
32895;DHT22;19251;49.484;8.260;2022-08-30T14:08:04;40.40;1.00
32895;DHT22;19251;49.484;8.260;2022-08-30T14:13:07;40.80;1.00
32895;DHT22;19251;49.484;8.260;2022-08-30T14:18:14;41.10;1.00
32895;DHT22;19251;49.484;8.260;2022-08-30T14:23:19;41.20;1.00
32895;DHT22;19251;49.484;8.260;2022-08-30T14:28:22;41.60;1.00
32895;DHT22;19251;49.484;8.260;2022-08-30T14:33:25;42.00;1.00
32895;DHT22;19251;49.484;8.260;2022-08-30T14:38:27;42.50;1.00
32895;DHT22;19251;49.484;8.260;2022-08-30T14:43:30;42.90;1.00
32895;DHT22;19251;49.484;8.260;2022-08-30T14:48:34;43.30;1.00
32895;DHT22;19251;49.484;8.260;2022-08-30T14:53:37;43.80;1.00
32895;DHT22;19251;49.484;8.260;2022-08-30T14:58:39;44.30;1.00
32895;DHT22;19251;49.484;8.260;2022-08-30T15:03:42;44.50;1.00
32895;DHT22;19251;49.484;8.260;2022-08-30T15:08:44;43.80;1.00
32895;DHT22;19251;49.484;8.260;2022-08-30T15:13:49;42.90;1.00
32895;DHT22;19251;49.484;8.260;2022-08-30T15:18:56;42.60;1.00
32895;DHT22;19251;49.484;8.260;2022-08-30T15:24:00;42.90;1.00
32895;DHT22;19251;49.484;8.260;2022-08-30T15:29:03;43.40;1.00
32895;DHT22;19251;49.484;8.260;2022-08-30T15:34:10;43.80;1.00
32895;DHT22;19251;49.484;8.260;2022-08-30T15:39:14;44.30;1.00
32895;DHT22;19251;49.484;8.260;2022-08-30T15:44:16;44.90;1.00
32895;DHT22;19251;49.484;8.260;2022-08-30T15:49:21;45.30;1.00
32895;DHT22;19251;49.484;8.260;2022-08-30T15:54:24;45.60;1.00
32895;DHT22;19251;49.484;8.260;2022-08-30T15:59:28;45.50;1.00
32895;DHT22;19251;49.484;8.260;2022-08-30T16:04:30;45.40;1.00
32895;DHT22;19251;49.484;8.260;2022-08-30T16:09:33;45.30;1.00
32895;DHT22;19251;49.484;8.260;2022-08-30T16:14:39;45.30;1.00
32895;DHT22;19251;49.484;8.260;2022-08-30T16:19:41;45.20;1.00
32895;DHT22;19251;49.484;8.260;2022-08-30T16:24:43;44.50;1.00
32895;DHT22;19251;49.484;8.260;2022-08-30T16:29:47;43.50;1.00
32895;DHT22;19251;49.484;8.260;2022-08-30T16:34:51;42.30;1.00
32895;DHT22;19251;49.484;8.260;2022-08-30T16:39:53;41.10;1.00
32895;DHT22;19251;49.484;8.260;2022-08-30T16:44:56;40.00;1.00
32895;DHT22;19251;49.484;8.260;2022-08-30T16:49:59;39.00;1.00
32895;DHT22;19251;49.484;8.260;2022-08-30T16:55:02;38.30;1.00
32895;DHT22;19251;49.484;8.260;2022-08-30T17:00:05;37.50;1.00
32895;DHT22;19251;49.484;8.260;2022-08-30T17:05:14;36.90;1.00
32895;DHT22;19251;49.484;8.260;2022-08-30T17:10:17;36.30;1.00
32895;DHT22;19251;49.484;8.260;2022-08-30T17:15:24;35.70;1.00
32895;DHT22;19251;49.484;8.260;2022-08-30T17:20:29;35.10;1.00
32895;DHT22;19251;49.484;8.260;2022-08-30T17:25:36;34.50;1.00
32895;DHT22;19251;49.484;8.260;2022-08-30T17:30:38;34.00;1.00
32895;DHT22;19251;49.484;8.260;2022-08-30T17:35:41;33.80;1.00
32895;DHT22;19251;49.484;8.260;2022-08-30T17:40:43;33.20;1.00
32895;DHT22;19251;49.484;8.260;2022-08-30T17:45:46;32.90;1.00
32895;DHT22;19251;49.484;8.260;2022-08-30T17:50:54;32.60;1.00
32895;DHT22;19251;49.484;8.260;2022-08-30T17:55:57;32.20;1.00
32895;DHT22;19251;49.484;8.260;2022-08-30T18:01:10;31.80;1.00
32895;DHT22;19251;49.484;8.260;2022-08-30T18:06:13;31.60;1.00
32895;DHT22;19251;49.484;8.260;2022-08-30T18:11:15;31.30;1.00
32895;DHT22;19251;49.484;8.260;2022-08-30T18:16:18;30.90;1.00
32895;DHT22;19251;49.484;8.260;2022-08-30T18:21:41;30.60;1.00
32895;DHT22;19251;49.484;8.260;2022-08-30T18:26:44;30.30;1.00
32895;DHT22;19251;49.484;8.260;2022-08-30T18:31:47;30.00;1.00
32895;DHT22;19251;49.484;8.260;2022-08-30T18:36:50;29.80;1.00
32895;DHT22;19251;49.484;8.260;2022-08-30T18:41:52;29.60;1.00
32895;DHT22;19251;49.484;8.260;2022-08-30T18:46:59;29.30;1.00
32895;DHT22;19251;49.484;8.260;2022-08-30T18:52:05;29.10;1.00
32895;DHT22;19251;49.484;8.260;2022-08-30T18:57:07;28.90;1.30
32895;DHT22;19251;49.484;8.260;2022-08-30T19:02:13;28.80;1.50
32895;DHT22;19251;49.484;8.260;2022-08-30T19:07:17;28.60;1.40
32895;DHT22;19251;49.484;8.260;2022-08-30T19:12:20;28.50;1.90
32895;DHT22;19251;49.484;8.260;2022-08-30T19:17:24;28.40;2.00
32895;DHT22;19251;49.484;8.260;2022-08-30T19:22:27;28.30;2.80
32895;DHT22;19251;49.484;8.260;2022-08-30T19:27:50;28.80;2.80
32895;DHT22;19251;49.484;8.260;2022-08-30T19:32:52;28.00;2.50
32895;DHT22;19251;49.484;8.260;2022-08-30T19:37:54;27.90;2.60
32895;DHT22;19251;49.484;8.260;2022-08-30T19:42:56;27.80;2.30
32895;DHT22;19251;49.484;8.260;2022-08-30T19:47:59;27.70;2.80
32895;DHT22;19251;49.484;8.260;2022-08-30T19:53:02;27.60;3.20
32895;DHT22;19251;49.484;8.260;2022-08-30T19:58:05;27.40;3.20
32895;DHT22;19251;49.484;8.260;2022-08-30T20:03:07;27.30;3.70
32895;DHT22;19251;49.484;8.260;2022-08-30T20:08:10;27.20;3.70
32895;DHT22;19251;49.484;8.260;2022-08-30T20:13:13;27.00;3.30
32895;DHT22;19251;49.484;8.260;2022-08-30T20:18:15;27.00;4.00
32895;DHT22;19251;49.484;8.260;2022-08-30T20:23:18;26.90;4.10
32895;DHT22;19251;49.484;8.260;2022-08-30T20:28:24;26.90;4.40
32895;DHT22;19251;49.484;8.260;2022-08-30T20:33:26;26.80;4.60
32895;DHT22;19251;49.484;8.260;2022-08-30T20:38:29;26.60;4.60
32895;DHT22;19251;49.484;8.260;2022-08-30T20:43:32;26.50;4.80
32895;DHT22;19251;49.484;8.260;2022-08-30T20:48:34;26.40;4.90
32895;DHT22;19251;49.484;8.260;2022-08-30T20:53:36;26.40;5.10
32895;DHT22;19251;49.484;8.260;2022-08-30T20:58:38;26.30;4.90
32895;DHT22;19251;49.484;8.260;2022-08-30T21:03:42;26.20;5.30
32895;DHT22;19251;49.484;8.260;2022-08-30T21:08:45;26.10;5.60
32895;DHT22;19251;49.484;8.260;2022-08-30T21:13:47;26.00;5.70
32895;DHT22;19251;49.484;8.260;2022-08-30T21:18:49;25.90;6.00
32895;DHT22;19251;49.484;8.260;2022-08-30T21:23:55;25.80;6.20
32895;DHT22;19251;49.484;8.260;2022-08-30T21:28:58;25.70;6.30
32895;DHT22;19251;49.484;8.260;2022-08-30T21:34:00;25.60;6.50
32895;DHT22;19251;49.484;8.260;2022-08-30T21:39:04;25.90;7.10
32895;DHT22;19251;49.484;8.260;2022-08-30T21:44:13;25.40;7.10
32895;DHT22;19251;49.484;8.260;2022-08-30T21:49:18;25.30;7.40
32895;DHT22;19251;49.484;8.260;2022-08-30T21:54:22;25.00;7.40
32895;DHT22;19251;49.484;8.260;2022-08-30T21:59:26;25.00;7.70
32895;DHT22;19251;49.484;8.260;2022-08-30T22:04:29;25.00;8.00
32895;DHT22;19251;49.484;8.260;2022-08-30T22:09:31;25.00;8.10
32895;DHT22;19251;49.484;8.260;2022-08-30T22:14:33;25.00;7.90
32895;DHT22;19251;49.484;8.260;2022-08-30T22:19:36;24.90;8.30
32895;DHT22;19251;49.484;8.260;2022-08-30T22:24:38;24.80;8.50
32895;DHT22;19251;49.484;8.260;2022-08-30T22:29:41;24.80;8.50
32895;DHT22;19251;49.484;8.260;2022-08-30T22:34:44;24.80;9.50
32895;DHT22;19251;49.484;8.260;2022-08-30T22:39:49;24.50;8.60
32895;DHT22;19251;49.484;8.260;2022-08-30T22:44:52;24.70;8.90
32895;DHT22;19251;49.484;8.260;2022-08-30T22:49:54;24.50;8.80
32895;DHT22;19251;49.484;8.260;2022-08-30T22:54:57;24.60;9.00
32895;DHT22;19251;49.484;8.260;2022-08-30T23:00:04;24.60;8.90
32895;DHT22;19251;49.484;8.260;2022-08-30T23:05:09;24.70;9.40
32895;DHT22;19251;49.484;8.260;2022-08-30T23:10:12;24.40;9.20
32895;DHT22;19251;49.484;8.260;2022-08-30T23:15:15;24.50;9.70
32895;DHT22;19251;49.484;8.260;2022-08-30T23:20:17;24.40;9.80
32895;DHT22;19251;49.484;8.260;2022-08-30T23:25:19;24.40;10.10
32895;DHT22;19251;49.484;8.260;2022-08-30T23:30:45;24.30;10.00
32895;DHT22;19251;49.484;8.260;2022-08-30T23:36:11;24.30;10.30
32895;DHT22;19251;49.484;8.260;2022-08-30T23:41:32;23.90;10.10
32895;DHT22;19251;49.484;8.260;2022-08-30T23:46:53;24.10;10.70
32895;DHT22;19251;49.484;8.260;2022-08-30T23:52:13;24.10;11.00
32895;DHT22;19251;49.484;8.260;2022-08-30T23:57:34;24.00;11.20
